Data for 09/18/2015

Time Sea-Level Adjusted Pressure Absolute Pressure Temperature Relative Humidity Dew Point   
(mb) (inHg) (mb) (inHg) (C) (F) (%) (C) (F)
00:05 1020 30.12 850 25.1 5.9 42.6 88 4.1 39.3
00:10 1020 30.12 850 25.1 5.9 42.6 88 4 39.2
00:15 1020 30.12 850 25.1 5.8 42.5 88 4 39.2
00:20 1021 30.15 850 25.1 5.8 42.5 88 4 39.3
00:25 1021 30.15 850 25.1 5.8 42.4 88 4 39.1
00:30 1021 30.15 850 25.1 5.7 42.2 88 3.8 38.8
00:35 1021 30.15 850 25.1 5.7 42.3 88 3.8 38.9
00:40 1021 30.15 850 25.1 5.7 42.2 87 3.8 38.8
00:45 1021 30.15 850 25.1 5.7 42.2 86 3.6 38.5
00:50 1021 30.15 850 25.1 5.8 42.4 86 3.7 38.7
00:55 1021 30.15 850 25.1 5.9 42.6 87 3.8 38.9
01:00 1021 30.15 850 25.1 5.9 42.6 85 3.6 38.5
01:05 1021 30.15 850 25.1 6 42.7 84 3.5 38.3
01:10 1021 30.15 850 25.1 5.9 42.7 86 3.7 38.7
01:15 1021 30.15 850 25.1 5.9 42.6 86 3.8 38.8
01:20 1021 30.15 850 25.1 5.8 42.4 86 3.7 38.6
01:25 1021 30.15 850 25.1 5.8 42.5 86 3.7 38.6
01:30 1021 30.15 850 25.1 5.9 42.7 85 3.7 38.6
01:35 1021 30.15 850 25.1 6 42.8 84 3.4 38.2
01:40 1021 30.15 850 25.1 6 42.8 82 3.2 37.8
01:45 1021 30.15 850 25.1 6 42.9 83 3.4 38.1
01:50 1021 30.15 850 25.1 6.1 42.9 85 3.8 38.8
01:55 1021 30.15 850 25.1 6 42.8 86 3.8 38.8
02:00 1021 30.15 850 25.1 5.9 42.7 87 3.9 39.1
02:05 1021 30.15 850 25.1 5.9 42.6 88 4.1 39.3
02:10 1021 30.15 850 25.1 5.9 42.6 88 4.1 39.3
02:15 1021 30.15 850 25.1 5.9 42.7 88 4 39.3
02:20 1021 30.15 850 25.1 5.9 42.6 88 4.1 39.4
02:25 1021 30.15 850 25.1 5.9 42.6 88 4.1 39.4
02:30 1021 30.15 850 25.1 5.9 42.5 89 4.2 39.5
02:35 1021 30.15 850 25.1 5.8 42.4 88 4 39.2
02:40 1021 30.15 850 25.1 5.8 42.4 87 3.8 38.9
02:45 1021 30.15 850 25.1 5.9 42.6 86 3.7 38.7
02:50 1021 30.15 850 25.1 5.9 42.6 87 3.9 39
02:55 1021 30.15 850 25.1 5.8 42.4 87 3.9 38.9
03:00 1021 30.15 850 25.1 5.8 42.5 86 3.7 38.7
03:05 1021 30.15 850 25.1 5.9 42.6 86 3.7 38.7
03:10 1021 30.15 850 25.1 5.9 42.6 86 3.8 38.8
03:15 1021 30.15 850 25.1 5.9 42.6 86 3.7 38.7
03:20 1021 30.15 850 25.1 5.9 42.7 85 3.7 38.6
03:25 1021 30.15 850 25.1 6 42.7 85 3.7 38.6
03:30 1021 30.15 850 25.1 6 42.7 85 3.7 38.6
03:35 1021 30.15 851 25.13 5.9 42.6 86 3.7 38.6
03:40 1021 30.15 851 25.13 5.9 42.6 86 3.7 38.7
03:45 1021 30.15 851 25.13 5.9 42.7 86 3.7 38.7
03:50 1021 30.15 851 25.13 6 42.8 85 3.6 38.6
03:55 1021 30.15 851 25.13 6 42.8 84 3.5 38.3
04:00 1022 30.18 851 25.13 6.1 43 83 3.4 38.1
04:05 1022 30.18 851 25.13 6.2 43.1 83 3.4 38.2
04:10 1022 30.18 851 25.13 6.2 43.1 81 3.2 37.8
04:15 1022 30.18 851 25.13 6.3 43.3 80 3.1 37.6
04:20 1022 30.18 851 25.13 6.3 43.4 80 3.2 37.7
04:25 1022 30.18 851 25.13 6.3 43.4 79 2.9 37.3
04:30 1022 30.18 851 25.13 6.4 43.5 78 2.9 37.3
04:35 1022 30.18 851 25.13 6.4 43.6 76 2.6 36.7
04:40 1022 30.18 851 25.13 6.3 43.4 77 2.6 36.7
04:45 1022 30.18 851 25.13 6.2 43.2 79 2.9 37.1
04:50 1022 30.18 851 25.13 6.2 43.1 79 2.9 37.2
04:55 1022 30.18 851 25.13 6.1 42.9 79 2.8 37
05:00 1022 30.18 851 25.13 6 42.7 79 2.7 36.8
05:05 1022 30.18 851 25.13 6 42.7 80 2.7 36.9
05:10 1022 30.18 851 25.13 6 42.7 79 2.6 36.6
05:15 1022 30.18 851 25.13 6 42.7 80 2.8 37
05:20 1022 30.18 851 25.13 5.9 42.7 80 2.7 36.8
05:25 1022 30.18 851 25.13 5.9 42.6 80 2.6 36.7
05:30 1022 30.18 851 25.13 5.9 42.6 79 2.6 36.6
05:35 1022 30.18 851 25.13 5.9 42.6 78 2.4 36.4
05:40 1022 30.18 851 25.13 6 42.7 79 2.5 36.6
05:45 1022 30.18 851 25.13 5.9 42.7 78 2.4 36.4
05:50 1022 30.18 852 25.16 6 42.7 81 3 37.5
05:55 1022 30.18 852 25.16 5.9 42.5 82 3 37.3
06:00 1022 30.18 852 25.16 5.7 42.2 82 2.9 37.2
06:05 1022 30.18 852 25.16 5.5 42 82 2.8 37
06:10 1023 30.21 852 25.16 5.5 41.9 85 3.1 37.6
06:15 1023 30.21 852 25.16 5.4 41.7 85 3 37.4
06:20 1023 30.21 852 25.16 5.3 41.5 85 3 37.4
06:25 1023 30.21 852 25.16 5.3 41.6 84 2.9 37.1
06:30 1023 30.21 852 25.16 5.4 41.8 83 2.8 37
06:35 1023 30.21 852 25.16 5.4 41.7 84 2.9 37.2
06:40 1023 30.21 852 25.16 5.4 41.7 84 3 37.3
06:45 1023 30.21 852 25.16 5.4 41.7 84 2.8 37.1
06:50 1023 30.21 852 25.16 5.4 41.8 83 2.8 37.1
06:55 1023 30.21 852 25.16 5.4 41.7 82 2.6 36.7
07:00 1023 30.21 852 25.16 5.5 41.8 81 2.5 36.5
07:05 1023 30.21 852 25.16 5.4 41.7 81 2.3 36.2
07:10 1023 30.21 852 25.16 5.4 41.8 81 2.5 36.5
07:15 1023 30.21 852 25.16 5.4 41.8 83 2.8 37
07:20 1023 30.21 852 25.16 5.3 41.6 84 2.8 37
07:25 1023 30.21 853 25.19 5.5 41.9 83 2.9 37.2
07:30 1023 30.21 853 25.19 5.6 42.1 82 2.8 37
07:35 1023 30.21 853 25.19 5.9 42.6 80 2.7 36.8
07:40 1023 30.21 853 25.19 6.3 43.3 76 2.4 36.3
07:45 1024 30.24 853 25.19 6.4 43.5 77 2.7 36.9
07:50 1024 30.24 853 25.19 6.6 43.9 76 2.8 37
07:55 1024 30.24 853 25.19 6.9 44.3 75 2.7 36.9
08:00 1024 30.24 853 25.19 7.1 44.8 75 2.9 37.3
08:05 1024 30.24 853 25.19 7.2 44.9 76 3.2 37.7
08:10 1024 30.24 853 25.19 7.3 45.2 75 3.2 37.8
08:15 1024 30.24 853 25.19 7.5 45.4 74 3.2 37.8
08:20 1024 30.24 853 25.19 7.5 45.5 73 3 37.4
08:25 1024 30.24 853 25.19 7.5 45.5 71 2.5 36.6
08:30 1024 30.24 853 25.19 7.5 45.6 70 2.4 36.3
08:35 1024 30.24 853 25.19 7.6 45.7 69 2.2 36
08:40 1024 30.24 853 25.19 7.7 45.9 68 2.3 36.2
08:45 1024 30.24 853 25.19 7.9 46.2 68 2.3 36.1
08:50 1024 30.24 853 25.19 8.2 46.7 66 2.2 35.9
08:55 1024 30.24 853 25.19 8.5 47.4 67 2.7 36.9
09:00 1024 30.24 853 25.19 8.7 47.6 66 2.6 36.7
09:05 1024 30.24 853 25.19 9.1 48.4 64 2.7 36.9
09:10 1024 30.24 853 25.19 9.7 49.4 58 1.8 35.2
09:15 1024 30.24 853 25.19 9.9 49.9 57 1.9 35.4
09:20 1024 30.24 853 25.19 10.2 50.4 60 2.8 37
09:25 1024 30.24 853 25.19 9.7 49.4 58 1.8 35.2
09:30 1024 30.24 853 25.19 10.3 50.6 55 1.8 35.2
09:35 1024 30.24 853 25.19 10.8 51.4 51 1.2 34.2
09:40 1024 30.24 853 25.19 11 51.8 52 1.5 34.6
09:45 1024 30.24 853 25.19 11.5 52.7 49 1.3 34.3
09:50 1024 30.24 853 25.19 11.7 53.1 49 1.4 34.5
09:55 1024 30.24 853 25.19 11.9 53.3 49 1.4 34.5
10:00 1024 30.24 853 25.19 11.4 52.6 50 1.4 34.6
10:05 1024 30.24 853 25.19 11.4 52.6 49 1.2 34.2
10:10 1024 30.24 853 25.19 11.9 53.4 47 1.1 34
10:15 1024 30.24 853 25.19 12.3 54.2 47 1.4 34.5
10:20 1024 30.24 853 25.19 12.4 54.3 48 1.6 34.9
10:25 1024 30.24 853 25.19 11.6 52.9 50 1.7 35
10:30 1024 30.24 853 25.19 11.4 52.6 49 1.2 34.2
10:35 1024 30.24 853 25.19 11.4 52.4 51 1.7 35.1
10:40 1024 30.24 853 25.19 11.3 52.3 50 1.3 34.4
10:45 1024 30.24 853 25.19 11 51.7 52 1.6 34.8
10:50 1024 30.24 853 25.19 11.2 52.2 52 1.8 35.2
10:55 1024 30.24 853 25.19 11.2 52.1 51 1.5 34.7
11:00 1024 30.24 853 25.19 11 51.7 52 1.5 34.7
11:05 1024 30.24 853 25.19 10.9 51.7 53 1.8 35.2
11:10 1024 30.24 853 25.19 11.1 52 52 1.7 35
11:15 1024 30.24 853 25.19 11.5 52.6 51 1.8 35.2
11:20 1023 30.21 853 25.19 11.8 53.2 51 1.9 35.5
11:25 1023 30.21 853 25.19 11.3 52.4 51 1.6 34.9
11:30 1024 30.24 853 25.19 11.5 52.6 49 1 33.8
11:35 1024 30.24 853 25.19 12.2 53.9 47 1.2 34.1
11:40 1024 30.24 853 25.19 12.6 54.6 47 1.5 34.7
11:45 1023 30.21 853 25.19 13 55.3 44 1 33.8
11:50 1023 30.21 853 25.19 13 55.3 44 1.1 34
11:55 1023 30.21 853 25.19 13.1 55.6 43 0.9 33.6
12:00 1023 30.21 852 25.16 13.6 56.4 42 0.9 33.7
12:05 1023 30.21 852 25.16 13.8 56.8 36 -0.8 30.5
12:10 1023 30.21 852 25.16 13.2 55.8 39 -0.3 31.5
12:15 1023 30.21 852 25.16 13.2 55.8 38 -0.6 31
12:20 1023 30.21 852 25.16 13.5 56.3 38 -0.6 31
12:25 1023 30.21 852 25.16 14 57.1 37 -0.4 31.2
12:30 1023 30.21 852 25.16 14 57.3 37 -0.2 31.6
12:35 1023 30.21 852 25.16 14 57.1 38 -0.2 31.6
12:40 1023 30.21 852 25.16 14.5 58 36 -0.4 31.3
12:45 1023 30.21 852 25.16 14.2 57.5 39 0.4 32.7
12:50 1023 30.21 852 25.16 14.5 58.2 35 -0.5 31.1
12:55 1023 30.21 852 25.16 15.4 59.7 33 -0.8 30.5
13:00 1023 30.21 852 25.16 14.8 58.6 37 0.2 32.4
13:05 1023 30.21 852 25.16 14.8 58.6 34 -0.9 30.5
13:10 1023 30.21 852 25.16 15 58.9 35 -0.2 31.6
13:15 1023 30.21 852 25.16 14.8 58.7 35 -0.6 31
13:20 1023 30.21 852 25.16 14.8 58.6 36 0.2 32.3
13:25 1023 30.21 852 25.16 14.8 58.6 37 0.3 32.6
13:30 1023 30.21 852 25.16 14.9 58.8 35 -0.3 31.4
13:35 1023 30.21 852 25.16 14.3 57.8 36 -0.4 31.3
13:40 1023 30.21 852 25.16 14.3 57.7 37 -0.3 31.5
13:45 1023 30.21 852 25.16 14.7 58.5 34 -0.8 30.6
13:50 1023 30.21 852 25.16 14.6 58.3 36 -0.1 31.9
13:55 1023 30.21 852 25.16 14.5 58.2 37 0 32.1
14:00 1023 30.21 852 25.16 14.5 58 37 0.1 32.2
14:05 1022 30.18 852 25.16 14.5 58 39 0.6 33.1
14:10 1022 30.18 852 25.16 14 57.2 38 -0 31.9
14:15 1022 30.18 852 25.16 14 57.2 37 -0.3 31.5
14:20 1022 30.18 852 25.16 14.1 57.3 37 -0.2 31.7
14:25 1022 30.18 851 25.13 13.8 56.8 43 1.4 34.6
14:30 1022 30.18 851 25.13 13.6 56.5 39 0.1 32.2
14:35 1022 30.18 851 25.13 14 57.3 37 -0.4 31.2
14:40 1022 30.18 851 25.13 14.3 57.7 36 -0.3 31.4
14:45 1022 30.18 851 25.13 14.4 58 36 -0.4 31.3
14:50 1022 30.18 851 25.13 14.5 58.2 34 -1.1 30.1
14:55 1022 30.18 851 25.13 14.8 58.6 34 -1.1 30.1
15:00 1022 30.18 851 25.13 14.6 58.4 32 -1.6 29.1
15:05 1022 30.18 851 25.13 14.8 58.7 32 -1.5 29.2
15:10 1022 30.18 851 25.13 14.9 58.7 32 -1.5 29.2
15:15 1022 30.18 851 25.13 14.8 58.6 32 -1.7 29
15:20 1022 30.18 851 25.13 14.9 58.7 33 -1 30.1
15:25 1022 30.18 851 25.13 14.9 58.8 33 -1.2 29.8
15:30 1022 30.18 851 25.13 14.7 58.5 33 -1.5 29.3
15:35 1022 30.18 851 25.13 14.7 58.5 34 -1 30.3
15:40 1022 30.18 851 25.13 14.7 58.4 34 -0.9 30.4
15:45 1022 30.18 851 25.13 14.6 58.3 34 -0.8 30.5
15:50 1022 30.18 851 25.13 14.6 58.3 34 -1 30.2
15:55 1022 30.18 851 25.13 14.3 57.8 34 -1 30.1
16:00 1022 30.18 851 25.13 14.4 58 35 -0.7 30.7
16:05 1022 30.18 851 25.13 14.6 58.3 34 -1 30.2
16:10 1022 30.18 851 25.13 14.5 58.1 34 -0.9 30.3
16:15 1022 30.18 851 25.13 14.4 57.9 34 -1 30.2
16:20 1022 30.18 851 25.13 14.4 57.8 35 -0.9 30.4
16:25 1022 30.18 851 25.13 14.5 58.1 34 -1 30.1
16:30 1022 30.18 851 25.13 14.3 57.8 33 -1.7 29
16:35 1022 30.18 851 25.13 14.3 57.8 35 -0.9 30.4
16:40 1022 30.18 851 25.13 14.2 57.6 35 -1 30.2
16:45 1022 30.18 851 25.13 14.2 57.5 34 -1.3 29.6
16:50 1022 30.18 851 25.13 14.2 57.5 34 -1.4 29.5
16:55 1022 30.18 851 25.13 14.1 57.4 34 -1.6 29.2
17:00 1022 30.18 851 25.13 14.2 57.5 33 -1.8 28.8
17:05 1021 30.15 851 25.13 14.4 57.8 34 -1.4 29.5
17:10 1021 30.15 851 25.13 14.7 58.5 33 -1.4 29.5
17:15 1021 30.15 851 25.13 15 59 33 -1.2 29.9
17:20 1021 30.15 851 25.13 14.8 58.6 34 -1 30.3
17:25 1021 30.15 851 25.13 14.2 57.5 35 -0.9 30.4
17:30 1021 30.15 851 25.13 14 57.2 36 -0.8 30.5
17:35 1021 30.15 851 25.13 13.8 56.9 35 -1.1 30
17:40 1021 30.15 850 25.1 13.8 56.8 37 -0.6 30.9
17:45 1021 30.15 850 25.1 13.7 56.6 38 -0.4 31.2
17:50 1021 30.15 850 25.1 13.6 56.4 38 -0.5 31.1
17:55 1021 30.15 850 25.1 13.4 56.1 40 0 32.1
18:00 1021 30.15 850 25.1 13.2 55.8 41 0.4 32.8
18:05 1021 30.15 850 25.1 13 55.5 43 0.7 33.3
18:10 1021 30.15 850 25.1 12.9 55.1 43 0.7 33.2
18:15 1021 30.15 850 25.1 12.7 54.9 44 1 33.8
18:20 1021 30.15 850 25.1 12.6 54.7 44 0.7 33.3
18:25 1021 30.15 850 25.1 12.6 54.6 47 1.7 35
18:30 1021 30.15 850 25.1 12.4 54.2 44 0.5 32.9
18:35 1021 30.15 850 25.1 12.1 53.8 44 0.3 32.5
18:40 1021 30.15 850 25.1 11.8 53.2 48 1.3 34.4
18:45 1021 30.15 850 25.1 11.3 52.3 53 2.1 35.9
18:50 1021 30.15 850 25.1 10.6 51.1 57 2.4 36.3
18:55 1021 30.15 850 25.1 10.3 50.5 58 2.5 36.4
19:00 1021 30.15 850 25.1 10 50 59 2.5 36.4
19:05 1021 30.15 850 25.1 9.9 49.7 59 2.4 36.2
19:10 1021 30.15 850 25.1 9.8 49.6 60 2.5 36.5
19:15 1021 30.15 850 25.1 9.7 49.5 61 2.6 36.7
19:20 1021 30.15 850 25.1 9.6 49.3 62 2.7 36.9
19:25 1021 30.15 850 25.1 9.6 49.2 62 2.7 36.8
19:30 1021 30.15 850 25.1 9.5 49 63 2.8 37.1
19:35 1021 30.15 851 25.13 9.1 48.3 67 3.3 38
19:40 1021 30.15 851 25.13 8.6 47.5 68 3.1 37.6
19:45 1021 30.15 850 25.1 8.9 48.1 61 1.9 35.5
19:50 1021 30.15 850 25.1 9.3 48.7 62 2.5 36.5
19:55 1021 30.15 850 25.1 9 48.2 65 2.8 37.1
20:00 1021 30.15 851 25.13 8.7 47.7 66 2.6 36.7
20:05 1021 30.15 851 25.13 8.7 47.6 64 2.2 36
20:10 1021 30.15 851 25.13 9 48.2 64 2.5 36.5
20:15 1021 30.15 851 25.13 9 48.2 63 2.4 36.3
20:20 1021 30.15 850 25.1 9 48.2 62 2.2 35.9
20:25 1021 30.15 851 25.13 9.1 48.3 63 2.4 36.2
20:30 1021 30.15 851 25.13 9 48.1 63 2.3 36.1
20:35 1021 30.15 851 25.13 8.9 47.9 63 2.2 35.9
20:40 1021 30.15 851 25.13 8.8 47.8 63 2.1 35.7
20:45 1021 30.15 850 25.1 8.9 48 62 2 35.6
20:50 1021 30.15 851 25.13 8.9 48 63 2.2 35.9
20:55 1021 30.15 850 25.1 8.7 47.6 64 2.3 36.2
21:00 1021 30.15 850 25.1 8.4 47.1 65 2.3 36.2
21:05 1021 30.15 850 25.1 8.1 46.6 67 2.4 36.3
21:10 1021 30.15 850 25.1 8 46.5 67 2.3 36.2
21:15 1021 30.15 850 25.1 8.2 46.7 65 2 35.5
21:20 1021 30.15 850 25.1 8.3 46.9 64 1.9 35.4
21:25 1021 30.15 850 25.1 8.3 46.9 62 1.5 34.7
21:30 1021 30.15 850 25.1 8.4 47.1 63 1.8 35.3
21:35 1021 30.15 850 25.1 8.4 47.1 63 1.9 35.3
21:40 1021 30.15 850 25.1 8.3 46.9 61 1.2 34.2
21:45 1021 30.15 850 25.1 8.5 47.3 60 1.2 34.1
21:50 1021 30.15 850 25.1 8.5 47.4 61 1.5 34.7
21:55 1021 30.15 850 25.1 8.4 47 59 1 33.7
22:00 1021 30.15 850 25.1 8.3 47 61 1.4 34.5
22:05 1021 30.15 850 25.1 8 46.3 64 1.7 35
22:10 1021 30.15 850 25.1 7.7 45.9 64 1.4 34.4
22:15 1021 30.15 850 25.1 7.7 45.9 65 1.6 34.8
22:20 1021 30.15 850 25.1 7.7 45.8 65 1.4 34.6
22:25 1021 30.15 850 25.1 7.6 45.6 65 1.4 34.6
22:30 1021 30.15 850 25.1 7.4 45.4 66 1.5 34.7
22:35 1021 30.15 850 25.1 7.2 44.9 66 1.3 34.3
22:40 1021 30.15 850 25.1 7 44.6 67 1.2 34.2
22:45 1021 30.15 850 25.1 7.2 45 65 1.1 34
22:50 1021 30.15 850 25.1 7.4 45.3 63 0.8 33.5
22:55 1021 30.15 850 25.1 7.8 46 61 0.7 33.3
23:00 1021 30.15 850 25.1 8 46.5 60 0.8 33.4
23:05 1021 30.15 850 25.1 8.1 46.6 60 0.7 33.3
23:10 1021 30.15 850 25.1 8 46.5 60 0.9 33.6
23:15 1021 30.15 850 25.1 7.8 46.1 62 1 33.9
23:20 1021 30.15 850 25.1 7.5 45.5 63 0.9 33.6
23:25 1020 30.12 850 25.1 7.4 45.3 64 1 33.8
23:30 1020 30.12 850 25.1 7.3 45.1 64 1 33.8
23:35 1020 30.12 850 25.1 6.9 44.5 66 1 33.9
23:40 1020 30.12 850 25.1 6.6 43.9 66 0.8 33.4
23:45 1020 30.12 850 25.1 6.8 44.3 64 0.6 33
23:50 1020 30.12 850 25.1 7 44.6 64 0.6 33.2
23:55 1020 30.12 850 25.1 7 44.5 65 0.8 33.5
24:00 1020 30.12 850 25.1 6.7 44 65 0.6 33.2